Coushatta, Louisiana
Current Conditions -  °F | °C
As of 3:35 PM on Friday 28 Nov 2014 (Local Time) from KIER Reporting Station
Clear Clear  
Wind Chill: 65°   Ceiling: Unl
Heat Index: 65°   Visibility: 10mi
Dew Point: 43°   Wind: 7mph
Humidity: 44%   Direction: 160°SSE
Pressure: 30.2"   Gusts: NA
Location:  32.01°N, 93.34°W
Report Text: KIER 282135Z AUTO 16006KT 10SM CLR 19/06 A3020 RMK AO2 T01860062
Loading
Personal Weather Stations






























Interactive Weather Map New forecast layout! Learn more

10-Day Weather Forecast

Advertisements
Track Severe Weather on mobile